createdAt,value
2018-06-11T00:01:44.272Z,96888.70
2018-06-11T00:04:12.880Z,96883.08
2018-06-11T00:06:41.667Z,96884.22
2018-06-11T00:09:10.571Z,96880.77
2018-06-11T00:11:39.445Z,96877.16
2018-06-11T00:14:08.276Z,96873.24
2018-06-11T00:16:38.594Z,96869.03
2018-06-11T00:19:08.740Z,96871.66
2018-06-11T00:21:37.568Z,96867.23
2018-06-11T00:24:06.400Z,96864.40
2018-06-11T00:26:35.249Z,96854.41
2018-06-11T00:29:04.258Z,96850.34
2018-06-11T00:31:33.084Z,96852.98
2018-06-11T00:34:02.400Z,96858.39
2018-06-11T00:36:31.063Z,96855.35
2018-06-11T00:38:59.848Z,96849.00
2018-06-11T00:41:28.469Z,96849.82
2018-06-11T00:43:57.051Z,96839.95
2018-06-11T00:46:25.744Z,96842.02
2018-06-11T00:48:54.616Z,96829.07
2018-06-11T00:51:23.486Z,96828.39
2018-06-11T00:53:52.499Z,96825.15
2018-06-11T00:56:21.369Z,96826.49
2018-06-11T00:58:50.137Z,96820.05
2018-06-11T01:01:18.792Z,96823.16
2018-06-11T01:03:47.599Z,96821.55
2018-06-11T01:06:16.201Z,96825.17
2018-06-11T01:08:44.756Z,96822.95
2018-06-11T01:11:13.352Z,96816.78
2018-06-11T01:13:41.945Z,96811.91
2018-06-11T01:16:10.737Z,96813.12
2018-06-11T01:18:39.329Z,96814.58
2018-06-11T01:21:07.926Z,96810.25
2018-06-11T01:23:36.525Z,96806.50
2018-06-11T01:26:05.193Z,96796.46
2018-06-11T01:28:33.931Z,96797.43
2018-06-11T01:31:02.492Z,96791.52
2018-06-11T01:33:31.079Z,96792.11
2018-06-11T01:35:59.783Z,96791.66
2018-06-11T01:38:28.350Z,96794.45
2018-06-11T01:40:57.108Z,96798.33
2018-06-11T01:43:25.710Z,96791.41
2018-06-11T01:45:54.272Z,96791.19
2018-06-11T01:48:22.880Z,96789.44
2018-06-11T01:50:51.716Z,96796.34
2018-06-11T01:53:20.653Z,96789.01
2018-06-11T01:55:49.448Z,96795.27
2018-06-11T01:58:18.299Z,96794.67
2018-06-11T02:00:47.020Z,96792.21
2018-06-11T02:03:15.931Z,96784.13
2018-06-11T02:05:45.159Z,96786.81
2018-06-11T02:08:13.999Z,96782.17
2018-06-11T02:10:42.832Z,96777.53
2018-06-11T02:13:11.566Z,96770.44
2018-06-11T02:15:40.288Z,96775.54
2018-06-11T02:18:09.409Z,96772.06
2018-06-11T02:20:38.168Z,96771.48
2018-06-11T02:23:06.896Z,96774.73
2018-06-11T02:25:35.484Z,96773.98
2018-06-11T02:28:04.043Z,96774.73
2018-06-11T02:30:32.643Z,96773.20
2018-06-11T02:33:01.218Z,96776.09
2018-06-11T02:35:29.803Z,96777.37
2018-06-11T02:37:58.704Z,96773.52
2018-06-11T02:40:27.500Z,96769.23
2018-06-11T02:42:56.180Z,96766.52
2018-06-11T02:45:24.964Z,96768.67
2018-06-11T02:47:53.709Z,96768.45
2018-06-11T02:50:22.540Z,96764.39
2018-06-11T02:52:51.332Z,96756.67
2018-06-11T02:55:20.316Z,96761.50
2018-06-11T02:57:49.149Z,96763.50
2018-06-11T03:00:17.921Z,96767.86
2018-06-11T03:02:46.668Z,96773.88
2018-06-11T03:05:15.484Z,96774.73
2018-06-11T03:07:44.443Z,96778.38
2018-06-11T03:10:13.272Z,96774.45
2018-06-11T03:12:41.899Z,96776.28
2018-06-11T03:15:10.772Z,96769.34
2018-06-11T03:17:39.528Z,96770.63
2018-06-11T03:20:08.246Z,96773.34
2018-06-11T03:22:37.060Z,96773.20
2018-06-11T03:25:06.145Z,96772.48
2018-06-11T03:27:34.804Z,96773.78
2018-06-11T03:30:03.580Z,96771.84
2018-06-11T03:32:32.608Z,96780.16
2018-06-11T03:35:01.167Z,96775.58
2018-06-11T03:37:29.824Z,96775.27
2018-06-11T03:39:58.544Z,96774.59
2018-06-11T03:42:27.363Z,96782.89
2018-06-11T03:44:56.131Z,96780.31
2018-06-11T03:47:24.871Z,96779.36
2018-06-11T03:49:53.615Z,96772.55
2018-06-11T03:52:22.319Z,96772.95
2018-06-11T03:54:51.144Z,96768.72
2018-06-11T03:57:20.084Z,96772.13
2018-06-11T03:59:48.826Z,96769.53
2018-06-11T04:02:17.684Z,96764.16
2018-06-11T04:04:46.565Z,96767.47
2018-06-11T04:07:15.416Z,96769.94
2018-06-11T04:09:44.082Z,96775.41
2018-06-11T04:12:12.762Z,96778.87
2018-06-11T04:14:41.551Z,96783.19
2018-06-11T04:17:10.368Z,96778.09
2018-06-11T04:19:39.132Z,96767.88
2018-06-11T04:22:07.940Z,96766.16
2018-06-11T04:24:36.540Z,96760.16
2018-06-11T04:27:22.032Z,96757.12
2018-06-11T04:30:10.830Z,96752.93
2018-06-11T04:32:40.723Z,96756.95
2018-06-11T04:35:09.536Z,96754.39
2018-06-11T04:37:38.225Z,96746.53
2018-06-11T04:40:07.046Z,96742.19
2018-06-11T04:42:35.620Z,96740.36
2018-06-11T04:45:04.252Z,96733.17
2018-06-11T04:47:32.804Z,96743.52
2018-06-11T04:50:01.395Z,96746.13
2018-06-11T04:52:30.037Z,96747.77
2018-06-11T04:54:58.607Z,96757.43
2018-06-11T04:57:27.378Z,96748.75
2018-06-11T04:59:55.955Z,96745.20
2018-06-11T05:02:24.528Z,96741.63
2018-06-11T05:04:53.154Z,96736.84
2018-06-11T05:07:21.729Z,96739.81
2018-06-11T05:09:50.487Z,96737.98
2018-06-11T05:14:46.596Z,96737.24
2018-06-11T05:17:15.196Z,96733.53
2018-06-11T05:19:43.780Z,96729.53
2018-06-11T05:22:12.584Z,96726.84
2018-06-11T05:24:41.151Z,96723.37
2018-06-11T05:27:09.715Z,96725.13
2018-06-11T05:29:38.351Z,96728.51
2018-06-11T05:32:06.939Z,96722.16
2018-06-11T05:34:36.425Z,96724.76
2018-06-11T05:37:05.321Z,96728.09
2018-06-11T05:39:34.336Z,96732.52
2018-06-11T05:42:03.223Z,96724.71
2018-06-11T05:44:31.789Z,96733.04
2018-06-11T05:47:00.494Z,96734.24
2018-06-11T05:49:29.085Z,96740.75
2018-06-11T05:51:57.700Z,96744.70
2018-06-11T05:54:26.292Z,96745.45
2018-06-11T05:56:54.876Z,96749.20
2018-06-11T05:59:23.682Z,96743.56
2018-06-11T06:01:52.268Z,96750.09
2018-06-11T06:04:21.126Z,96746.09
2018-06-11T06:06:49.714Z,96762.09
2018-06-11T06:09:18.379Z,96763.44
2018-06-11T06:11:47.335Z,96770.87
2018-06-11T06:14:16.164Z,96768.53
2018-06-11T06:16:45.012Z,96769.27
2018-06-11T06:19:13.871Z,96777.18
2018-06-11T06:21:42.579Z,96772.16
2018-06-11T06:24:16.256Z,96768.73
2018-06-11T06:26:47.292Z,96773.80
2018-06-11T06:29:18.000Z,96767.80
2018-06-11T06:31:47.809Z,96759.72
2018-06-11T06:34:16.911Z,96749.73
2018-06-11T06:36:48.352Z,96749.22
2018-06-11T06:39:19.644Z,96757.45
2018-06-11T06:41:50.084Z,96766.36
2018-06-11T06:44:19.631Z,96771.55
2018-06-11T06:46:49.476Z,96775.12
2018-06-11T06:49:25.399Z,96777.69
2018-06-11T06:51:55.770Z,96780.34
2018-06-11T06:54:26.488Z,96783.28
2018-06-11T06:56:57.027Z,96780.09
2018-06-11T06:59:25.847Z,96776.80
2018-06-11T07:01:56.541Z,96774.34
2018-06-11T07:04:25.446Z,96770.09
2018-06-11T07:06:55.179Z,96773.61
2018-06-11T07:09:24.008Z,96771.55
2018-06-11T07:11:55.145Z,96770.81
2018-06-11T07:14:24.399Z,96770.44
2018-06-11T07:16:53.532Z,96771.47
2018-06-11T07:19:24.103Z,96768.67
2018-06-11T07:21:52.871Z,96769.87
2018-06-11T07:24:21.928Z,96767.99
2018-06-11T07:26:50.741Z,96760.11
2018-06-11T07:29:19.548Z,96764.90
2018-06-11T07:31:48.349Z,96755.11
2018-06-11T07:34:17.266Z,96765.25
2018-06-11T07:36:46.347Z,96761.19
2018-06-11T07:39:15.213Z,96757.80
2018-06-11T07:41:43.891Z,96751.70
2018-06-11T07:44:12.696Z,96751.48
2018-06-11T07:46:41.364Z,96754.67
2018-06-11T07:49:10.196Z,96754.37
2018-06-11T07:51:39.043Z,96752.33
2018-06-11T07:54:07.750Z,96751.34
2018-06-11T07:56:36.591Z,96743.34
2018-06-11T07:59:06.292Z,96744.25
2018-06-11T08:01:35.476Z,96744.28
2018-06-11T08:04:04.256Z,96751.38
2018-06-11T08:06:33.148Z,96735.92
2018-06-11T08:09:02.035Z,96736.00
2018-06-11T08:11:30.594Z,96732.91
2018-06-11T08:13:59.411Z,96734.18
2018-06-11T08:16:28.352Z,96731.93
2018-06-11T08:18:57.143Z,96738.05
2018-06-11T08:21:25.956Z,96732.83
2018-06-11T08:23:54.719Z,96733.06
2018-06-11T08:26:23.793Z,96733.34
2018-06-11T08:28:52.537Z,96735.80
2018-06-11T08:31:21.380Z,96732.31
2018-06-11T08:33:50.223Z,96729.64
2018-06-11T08:36:19.167Z,96737.42
2018-06-11T08:38:48.004Z,96743.91
2018-06-11T08:41:16.792Z,96736.28
2018-06-11T08:43:45.646Z,96733.08
2018-06-11T08:46:17.482Z,96727.19
2018-06-11T08:48:46.176Z,96730.39
2018-06-11T08:51:14.999Z,96731.13
2018-06-11T08:53:43.820Z,96733.57
2018-06-11T08:56:12.608Z,96733.42
2018-06-11T08:58:41.358Z,96732.83
2018-06-11T09:01:10.063Z,96736.08
2018-06-11T09:03:38.954Z,96735.84
2018-06-11T09:06:07.796Z,96728.62
2018-06-11T09:08:36.587Z,96731.20
2018-06-11T09:11:05.395Z,96727.41
2018-06-11T09:13:34.168Z,96726.09
2018-06-11T09:16:03.125Z,96737.42
2018-06-11T09:18:31.899Z,96735.97
2018-06-11T09:21:00.735Z,96731.69
2018-06-11T09:23:29.704Z,96729.80
2018-06-11T09:25:58.432Z,96732.32
2018-06-11T09:28:27.204Z,96728.80
2018-06-11T09:30:56.282Z,96726.47
2018-06-11T09:33:25.698Z,96726.61
2018-06-11T09:35:54.402Z,96730.10
2018-06-11T09:38:23.208Z,96733.16
2018-06-11T09:40:52.076Z,96738.79
2018-06-11T09:43:20.884Z,96742.43
2018-06-11T09:45:49.828Z,96740.93
2018-06-11T09:48:18.635Z,96737.05
2018-06-11T09:50:47.447Z,96745.75
2018-06-11T09:53:16.205Z,96738.52
2018-06-11T09:55:44.989Z,96743.02
2018-06-11T09:58:13.886Z,96732.70
2018-06-11T10:00:42.479Z,96739.02
2018-06-11T10:03:11.234Z,96740.00
2018-06-11T10:05:40.055Z,96732.42
2018-06-11T10:08:08.883Z,96741.04
2018-06-11T10:10:37.737Z,96735.52
2018-06-11T10:13:06.581Z,96741.20
2018-06-11T10:15:35.183Z,96729.67
2018-06-11T10:18:03.780Z,96721.34
2018-06-11T10:20:32.407Z,96715.35
2018-06-11T10:23:00.979Z,96710.86
2018-06-11T10:25:29.592Z,96711.21
2018-06-11T10:27:58.199Z,96711.05
2018-06-11T10:30:26.760Z,96708.89
2018-06-11T10:32:55.456Z,96703.53
2018-06-11T10:35:24.032Z,96700.94
2018-06-11T10:40:26.601Z,96696.13
2018-06-11T10:42:55.460Z,96699.21
2018-06-11T10:45:24.528Z,96701.79
2018-06-11T10:47:53.352Z,96693.43
2018-06-11T10:50:22.120Z,96689.07
2018-06-11T10:52:51.039Z,96680.59
2018-06-11T10:55:19.815Z,96685.03
2018-06-11T10:57:48.771Z,96681.78
2018-06-11T11:00:17.528Z,96673.88
2018-06-11T11:02:46.316Z,96670.39
2018-06-11T11:05:15.123Z,96675.23
2018-06-11T11:07:43.948Z,96674.23
2018-06-11T11:10:12.920Z,96676.17
2018-06-11T11:12:41.838Z,96678.13
2018-06-11T11:15:10.623Z,96669.09
2018-06-11T11:17:39.436Z,96667.53
2018-06-11T11:20:08.002Z,96654.55
2018-06-11T11:22:36.749Z,96655.17
2018-06-11T11:25:05.388Z,96649.83
2018-06-11T11:27:33.952Z,96651.03
2018-06-11T11:30:02.544Z,96652.47
2018-06-11T11:32:31.110Z,96648.45
2018-06-11T11:34:59.711Z,96651.82
2018-06-11T11:37:28.275Z,96650.00
2018-06-11T11:39:56.848Z,96654.53
2018-06-11T11:42:25.468Z,96656.77
2018-06-11T11:44:54.138Z,96661.35
2018-06-11T11:47:22.745Z,96666.88
2018-06-11T11:49:51.324Z,96657.44
2018-06-11T11:52:19.911Z,96653.13
2018-06-11T11:54:48.496Z,96650.84
2018-06-11T11:57:17.056Z,96643.63
2018-06-11T11:59:45.672Z,96640.02
2018-06-11T12:02:14.244Z,96643.98
2018-06-11T12:04:42.808Z,96642.34
2018-06-11T12:07:11.507Z,96636.66
2018-06-11T12:09:40.077Z,96638.86
2018-06-11T12:12:09.008Z,96635.45
2018-06-11T12:14:39.471Z,96635.45
2018-06-11T12:17:08.201Z,96633.95
2018-06-11T12:19:37.048Z,96631.48
2018-06-11T12:22:05.608Z,96628.45
2018-06-11T12:24:34.338Z,96630.16
2018-06-11T12:27:02.904Z,96627.86
2018-06-11T12:29:31.691Z,96625.67
2018-06-11T12:32:00.363Z,96608.17
2018-06-11T12:34:28.936Z,96607.41
2018-06-11T12:36:57.532Z,96595.13
2018-06-11T12:39:26.114Z,96588.59
2018-06-11T12:41:54.874Z,96584.46
2018-06-11T12:44:23.541Z,96568.84
2018-06-11T12:46:52.091Z,96563.63
2018-06-11T12:49:20.664Z,96569.54
2018-06-11T12:51:49.569Z,96574.23
2018-06-11T12:54:18.543Z,96569.84
2018-06-11T12:56:47.250Z,96560.36
2018-06-11T12:59:15.779Z,96557.45
2018-06-11T13:01:44.340Z,96554.15
2018-06-11T13:04:13.002Z,96547.22
2018-06-11T13:06:41.671Z,96543.21
2018-06-11T13:09:10.445Z,96533.95
2018-06-11T13:11:39.420Z,96531.08
2018-06-11T13:14:08.223Z,96531.44
2018-06-11T13:16:36.783Z,96532.20
2018-06-11T13:19:05.524Z,96537.25
2018-06-11T13:21:34.252Z,96519.05
2018-06-11T13:24:03.287Z,96519.16
2018-06-11T13:26:31.944Z,96514.08
2018-06-11T13:29:00.616Z,96517.61
2018-06-11T13:31:29.548Z,96514.80
2018-06-11T13:33:58.147Z,96517.27
2018-06-11T13:36:26.807Z,96509.05
2018-06-11T13:38:55.555Z,96514.20
2018-06-11T13:41:24.404Z,96526.00
2018-06-11T13:43:53.392Z,96515.24
2018-06-11T13:46:21.943Z,96513.13
2018-06-11T13:48:50.508Z,96507.39
2018-06-11T13:51:19.188Z,96498.30
2018-06-11T13:53:47.764Z,96501.52
2018-06-11T13:56:16.604Z,96492.26
2018-06-11T13:58:45.171Z,96493.48
2018-06-11T14:01:13.851Z,96498.55
2018-06-11T14:03:42.568Z,96485.56
2018-06-11T14:06:11.136Z,96472.50
2018-06-11T14:08:39.752Z,96469.52
2018-06-11T14:11:08.409Z,96463.38
2018-06-11T14:13:36.981Z,96469.66
2018-06-11T14:16:05.696Z,96469.24
2018-06-11T14:18:34.452Z,96473.04
2018-06-11T14:21:03.311Z,96470.09
2018-06-11T14:23:33.776Z,96469.66
2018-06-11T14:26:05.883Z,96470.06
2018-06-11T14:28:34.454Z,96477.41
2018-06-11T14:31:03.040Z,96475.80
2018-06-11T14:33:31.627Z,96475.41
2018-06-11T14:36:00.907Z,96472.19
2018-06-11T14:38:33.964Z,96481.64
2018-06-11T14:41:07.554Z,96477.73
2018-06-11T14:43:41.996Z,96485.75
2018-06-11T14:46:10.656Z,96495.01
2018-06-11T14:48:42.521Z,96495.61
2018-06-11T14:51:11.143Z,96500.77
2018-06-11T14:53:39.824Z,96500.38
2018-06-11T14:56:08.684Z,96488.43
2018-06-11T14:58:37.468Z,96488.94
2018-06-11T15:01:06.520Z,96484.77
2018-06-11T15:03:35.229Z,96482.63
2018-06-11T15:06:03.851Z,96488.80
2018-06-11T15:08:32.581Z,96492.66
2018-06-11T15:11:02.721Z,96496.81
2018-06-11T15:13:37.820Z,96493.71
2018-06-11T15:16:06.551Z,96508.38
2018-06-11T15:18:37.877Z,96516.34
2018-06-11T15:21:06.589Z,96510.30
2018-06-11T15:23:35.365Z,96502.66
2018-06-11T15:26:03.948Z,96490.47
2018-06-11T15:28:32.571Z,96482.30
2018-06-11T15:31:01.499Z,96490.13
2018-06-11T15:33:30.188Z,96490.64
2018-06-11T15:35:59.010Z,96475.92
2018-06-11T15:38:27.948Z,96464.95
2018-06-11T15:40:56.730Z,96464.45
2018-06-11T15:43:25.640Z,96471.46
2018-06-11T15:45:54.449Z,96460.68
2018-06-11T15:48:23.353Z,96466.68
2018-06-11T15:50:52.376Z,96473.48
2018-06-11T15:53:21.268Z,96490.88
2018-06-11T15:55:50.564Z,96516.77
2018-06-11T15:58:19.309Z,96548.00
2018-06-11T16:00:48.137Z,96562.12
2018-06-11T16:03:16.928Z,96540.40
2018-06-11T16:05:45.692Z,96502.81
2018-06-11T16:08:14.665Z,96505.88
2018-06-11T16:10:43.400Z,96500.38
2018-06-11T16:13:12.128Z,96508.66
2018-06-11T16:15:40.873Z,96523.34
2018-06-11T16:18:09.605Z,96524.65
2018-06-11T16:20:38.364Z,96529.47
2018-06-11T16:23:07.076Z,96536.54
2018-06-11T16:25:35.813Z,96534.06
2018-06-11T16:28:04.631Z,96529.54
2018-06-11T16:30:33.346Z,96548.83
2018-06-11T16:33:02.216Z,96552.48
2018-06-11T16:35:30.959Z,96559.61
2018-06-11T16:37:59.668Z,96564.49
2018-06-11T16:40:28.620Z,96553.54
2018-06-11T16:42:57.872Z,96565.35
2018-06-11T16:45:26.708Z,96575.98
2018-06-11T16:47:55.432Z,96576.88
2018-06-11T16:50:24.132Z,96583.24
2018-06-11T16:52:53.468Z,96576.09
2018-06-11T16:55:22.216Z,96574.89
2018-06-11T16:57:51.200Z,96560.70
2018-06-11T17:00:20.181Z,96553.63
2018-06-11T17:02:49.173Z,96559.55
2018-06-11T17:05:18.019Z,96557.02
2018-06-11T17:07:46.716Z,96566.65
2018-06-11T17:10:15.576Z,96575.27
2018-06-11T17:12:44.396Z,96584.39
2018-06-11T17:15:13.223Z,96591.49
2018-06-11T17:17:42.009Z,96589.14
2018-06-11T17:20:10.831Z,96604.72
2018-06-11T17:22:39.692Z,96610.48
2018-06-11T17:25:08.484Z,96616.36
2018-06-11T17:27:37.332Z,96620.70
2018-06-11T17:30:06.278Z,96633.19
2018-06-11T17:32:35.017Z,96639.22
2018-06-11T17:35:04.072Z,96651.84
2018-06-11T17:37:34.410Z,96657.08
2018-06-11T17:40:03.508Z,96660.58
2018-06-11T17:42:32.572Z,96656.88
2018-06-11T17:45:01.297Z,96659.91
2018-06-11T17:47:30.113Z,96659.80
2018-06-11T17:49:58.840Z,96652.23
2018-06-11T17:52:27.679Z,96655.39
2018-06-11T17:54:56.441Z,96649.09
2018-06-11T17:57:25.186Z,96656.72
2018-06-11T17:59:53.919Z,96647.94
2018-06-11T18:02:22.652Z,96653.83
2018-06-11T18:04:51.425Z,96656.93
2018-06-11T18:07:20.139Z,96661.52
2018-06-11T18:09:48.875Z,96657.11
2018-06-11T18:12:20.028Z,96656.02
2018-06-11T18:14:48.844Z,96659.66
2018-06-11T18:17:18.133Z,96658.34
2018-06-11T18:19:46.856Z,96658.16
2018-06-11T18:22:15.564Z,96651.89
2018-06-11T18:24:44.304Z,96659.97
2018-06-11T18:27:13.097Z,96659.94
2018-06-11T18:29:42.346Z,96658.81
2018-06-11T18:32:11.081Z,96649.34
2018-06-11T18:34:39.788Z,96651.84
2018-06-11T18:37:08.544Z,96653.81
2018-06-11T18:39:37.622Z,96659.23
2018-06-11T18:42:06.602Z,96661.25
2018-06-11T18:44:35.336Z,96658.11
2018-06-11T18:47:04.116Z,96659.66
2018-06-11T18:49:32.925Z,96656.91
2018-06-11T18:52:01.918Z,96657.10
2018-06-11T18:54:30.864Z,96648.23
2018-06-11T18:56:59.868Z,96643.09
2018-06-11T18:59:28.584Z,96641.72
2018-06-11T19:01:57.664Z,96640.28
2018-06-11T19:04:26.919Z,96634.72
2018-06-11T19:06:56.203Z,96624.86
2018-06-11T19:09:25.441Z,96620.58
2018-06-11T19:11:54.636Z,96622.41
2018-06-11T19:14:23.633Z,96619.54
2018-06-11T19:16:53.038Z,96621.02
2018-06-11T19:19:22.149Z,96615.06
2018-06-11T19:21:51.222Z,96623.55
2018-06-11T19:24:20.199Z,96623.65
2018-06-11T19:26:49.326Z,96625.48
2018-06-11T19:29:18.231Z,96626.84
2018-06-11T19:31:47.152Z,96636.33
2018-06-11T19:34:16.114Z,96646.28
2018-06-11T19:36:45.073Z,96650.46
2018-06-11T19:39:13.900Z,96647.83
2018-06-11T19:41:42.856Z,96656.66
2018-06-11T19:44:11.789Z,96652.30
2018-06-11T19:46:40.625Z,96653.81
2018-06-11T19:49:09.768Z,96651.23
2018-06-11T19:51:52.913Z,96649.33
2018-06-11T19:54:22.837Z,96644.98
2018-06-11T19:59:20.870Z,96648.45
2018-06-11T20:01:50.162Z,96646.55
2018-06-11T20:04:19.192Z,96655.84
2018-06-11T20:06:48.680Z,96663.35
2018-06-11T20:09:18.416Z,96666.55
2018-06-11T20:11:47.894Z,96675.69
2018-06-11T20:14:17.303Z,96679.33
2018-06-11T20:16:47.304Z,96685.46
2018-06-11T20:19:16.853Z,96687.61
2018-06-11T20:21:47.619Z,96688.91
2018-06-11T20:24:17.849Z,96690.87
2018-06-11T20:26:47.439Z,96689.12
2018-06-11T20:29:16.769Z,96692.64
2018-06-11T20:31:46.043Z,96685.53
2018-06-11T20:34:15.627Z,96689.86
2018-06-11T20:36:45.308Z,96687.75
2018-06-11T20:39:14.467Z,96677.46
2018-06-11T20:41:43.889Z,96679.83
2018-06-11T20:44:13.289Z,96668.52
2018-06-11T20:46:42.867Z,96667.70
2018-06-11T20:49:12.416Z,96655.09
2018-06-11T20:51:41.907Z,96659.44
2018-06-11T20:54:11.530Z,96644.10
2018-06-11T20:56:40.968Z,96641.40
2018-06-11T20:59:10.423Z,96647.22
2018-06-11T21:01:39.839Z,96640.47
2018-06-11T21:04:08.736Z,96633.67
2018-06-11T21:06:39.141Z,96638.43
2018-06-11T21:09:09.509Z,96643.25
2018-06-11T21:11:38.634Z,96643.79
2018-06-11T21:14:07.793Z,96642.89
2018-06-11T21:16:37.306Z,96639.45
2018-06-11T21:19:06.889Z,96630.28
2018-06-11T21:21:36.342Z,96633.73
2018-06-11T21:24:05.365Z,96635.05
2018-06-11T21:26:34.152Z,96634.97
2018-06-11T21:29:03.201Z,96639.09
2018-06-11T21:31:32.229Z,96638.36
2018-06-11T21:34:01.348Z,96638.42
2018-06-11T21:36:30.241Z,96642.06
2018-06-11T21:38:59.249Z,96643.09
2018-06-11T21:41:28.309Z,96646.86
2018-06-11T21:43:57.133Z,96642.77
2018-06-11T21:46:26.126Z,96648.09
2018-06-11T21:48:55.072Z,96647.56
2018-06-11T21:51:24.031Z,96651.68
2018-06-11T21:53:52.989Z,96652.36
2018-06-11T21:56:22.096Z,96651.74
2018-06-11T21:58:50.985Z,96639.43
2018-06-11T22:01:19.886Z,96642.94
2018-06-11T22:03:48.987Z,96642.22
2018-06-11T22:06:18.033Z,96637.14
2018-06-11T22:08:47.232Z,96640.13
2018-06-11T22:11:16.165Z,96634.55
2018-06-11T22:13:45.049Z,96635.65
2018-06-11T22:16:13.852Z,96636.39
2018-06-11T22:18:42.820Z,96632.61
2018-06-11T22:21:11.733Z,96638.01
2018-06-11T22:23:40.808Z,96640.19
2018-06-11T22:26:09.801Z,96643.78
2018-06-11T22:28:38.730Z,96632.86
2018-06-11T22:31:07.560Z,96630.55
2018-06-11T22:33:36.425Z,96636.33
2018-06-11T22:36:05.377Z,96629.55
2018-06-11T22:38:34.297Z,96623.17
2018-06-11T22:41:03.172Z,96634.42
2018-06-11T22:43:32.041Z,96643.01
2018-06-11T22:46:01.128Z,96643.83
2018-06-11T22:48:30.144Z,96645.46
2018-06-11T22:50:58.997Z,96647.77
2018-06-11T22:53:28.649Z,96649.86
2018-06-11T22:55:57.789Z,96651.69
2018-06-11T22:58:26.952Z,96649.34
2018-06-11T23:00:56.042Z,96632.31
2018-06-11T23:03:24.908Z,96630.88
2018-06-11T23:05:53.934Z,96634.94
2018-06-11T23:08:22.961Z,96630.60
2018-06-11T23:10:51.916Z,96634.31
2018-06-11T23:13:20.777Z,96638.80
2018-06-11T23:15:49.825Z,96645.00
2018-06-11T23:18:18.849Z,96654.95
2018-06-11T23:20:47.866Z,96653.92
2018-06-11T23:23:17.008Z,96648.72
2018-06-11T23:25:45.920Z,96642.55
2018-06-11T23:28:14.732Z,96630.03
2018-06-11T23:30:43.840Z,96624.50
2018-06-11T23:33:12.857Z,96622.95
2018-06-11T23:35:41.809Z,96622.23
2018-06-11T23:38:10.804Z,96627.79
2018-06-11T23:40:39.901Z,96630.61
2018-06-11T23:43:08.908Z,96633.91
2018-06-11T23:45:37.901Z,96631.28
2018-06-11T23:48:06.944Z,96624.13
2018-06-11T23:50:35.988Z,96629.74
2018-06-11T23:53:04.856Z,96633.91
2018-06-11T23:55:33.815Z,96635.08
2018-06-11T23:58:02.770Z,96627.46
